Capitol Logistics 432


KMIA
Miami International Airport
Miami, Florida, US
KBNA
Nashville International Airport
Nashville, Tennessee, US

Activity Log

Date Flight Route Aircraft Duration
06/23/2019 CPX432 WINCO2 WINCO CHRRI Q118 ATL WESSN JAGIR SWFFT2 B752 2h 02m
06/08/2019 CPX432 WINCO2 WINCO CHRRI Q118 ATL WESSN JAGIR SWFFT2 B752 2h 02m
06/05/2019 CPX432 WINCO2 WINCO CHRRI ATL WESSN JAGIR SWFFT2 B752 2h 25m
02/11/2019 CPX432 WINCO2 WINCO CHRRI Q118 ATL WESSN JAGIR SWFFT2 B752 2h 02m

Route Details

Aircraft Information
Primary: Boeing 757-200SF
Backup: Boeing 737-800BCF
Route Data
Distance: 702nm
Sched. Duration: 2h 04m
Avg. Duration: 2h 08m (+3m)
Times Flown: 4
Recm'd Route: WINCO2 WINCO CHRRI Q118 ATL WESSN JAGIR SWFFT2
Planned Altitude: 38,000ft
Origin Wx: KMIA 282153Z 31007G16KT 10SM CLR 19/04 A3019 RMK AO2 SLP222 T01940039
Dest. Wx: KBNA 282153Z 25008KT 10SM BKN060 BKN075 09/M04 A3009 RMK AO2 SLP190 T00941044
Notes:

Financial History
Total Freight: 221,638lbs
Average Load: 55,410lbs/flt
Fuel Used: 67,973lbs
Avg. Fuel Used: 16,993lbs/flt
Fuel Expense: $83,607
Avg. Fuel Expense: $20,902
Avg. Fuel Cost: $1.23/lbs
Total Gross Income: $290,346
Pilot Pay: $596
Total Expenses: $31,565
Total Revenue: $173,366
Average Revenue: $72,586.45